sensor_id;sensor_type;location;lat;lon;timestamp;P1;durP1;ratioP1;P2;durP2;ratioP2
71558;SDS011;59382;43.852;25.952;2024-02-15T00:01:10;2.92;;;2.53;;
71558;SDS011;59382;43.852;25.952;2024-02-15T00:03:36;3.92;;;2.65;;
71558;SDS011;59382;43.852;25.952;2024-02-15T00:06:01;4.07;;;2.20;;
71558;SDS011;59382;43.852;25.952;2024-02-15T00:08:28;2.33;;;1.75;;
71558;SDS011;59382;43.852;25.952;2024-02-15T00:10:55;3.17;;;2.33;;
71558;SDS011;59382;43.852;25.952;2024-02-15T00:13:20;3.05;;;2.65;;
71558;SDS011;59382;43.852;25.952;2024-02-15T00:15:48;4.80;;;2.85;;
71558;SDS011;59382;43.852;25.952;2024-02-15T00:18:14;9.20;;;2.47;;
71558;SDS011;59382;43.852;25.952;2024-02-15T00:20:39;3.65;;;2.42;;
71558;SDS011;59382;43.852;25.952;2024-02-15T00:23:05;3.97;;;2.63;;
71558;SDS011;59382;43.852;25.952;2024-02-15T00:25:31;4.38;;;2.92;;
71558;SDS011;59382;43.852;25.952;2024-02-15T00:27:57;4.18;;;2.60;;
71558;SDS011;59382;43.852;25.952;2024-02-15T00:30:25;5.05;;;3.15;;
71558;SDS011;59382;43.852;25.952;2024-02-15T00:32:52;4.40;;;2.65;;
71558;SDS011;59382;43.852;25.952;2024-02-15T00:35:18;3.80;;;2.60;;
71558;SDS011;59382;43.852;25.952;2024-02-15T00:37:43;2.65;;;2.35;;
71558;SDS011;59382;43.852;25.952;2024-02-15T00:40:10;4.75;;;2.75;;
71558;SDS011;59382;43.852;25.952;2024-02-15T00:42:36;4.68;;;3.10;;
71558;SDS011;59382;43.852;25.952;2024-02-15T00:45:03;4.60;;;2.90;;
71558;SDS011;59382;43.852;25.952;2024-02-15T00:47:30;6.32;;;2.80;;
71558;SDS011;59382;43.852;25.952;2024-02-15T00:49:55;3.80;;;2.75;;
71558;SDS011;59382;43.852;25.952;2024-02-15T00:52:21;4.95;;;3.17;;
71558;SDS011;59382;43.852;25.952;2024-02-15T00:54:46;4.38;;;2.60;;
71558;SDS011;59382;43.852;25.952;2024-02-15T00:57:12;7.20;;;2.78;;
71558;SDS011;59382;43.852;25.952;2024-02-15T00:59:38;4.03;;;3.00;;
71558;SDS011;59382;43.852;25.952;2024-02-15T01:02:03;4.65;;;2.83;;
71558;SDS011;59382;43.852;25.952;2024-02-15T01:04:30;6.30;;;3.42;;
71558;SDS011;59382;43.852;25.952;2024-02-15T01:06:55;3.67;;;2.75;;
71558;SDS011;59382;43.852;25.952;2024-02-15T01:09:21;3.70;;;2.53;;
71558;SDS011;59382;43.852;25.952;2024-02-15T01:11:47;3.63;;;2.40;;
71558;SDS011;59382;43.852;25.952;2024-02-15T01:14:13;5.38;;;3.38;;
71558;SDS011;59382;43.852;25.952;2024-02-15T01:16:40;5.00;;;3.00;;
71558;SDS011;59382;43.852;25.952;2024-02-15T01:19:06;5.72;;;3.17;;
71558;SDS011;59382;43.852;25.952;2024-02-15T01:21:32;3.72;;;2.92;;
71558;SDS011;59382;43.852;25.952;2024-02-15T01:24:00;5.00;;;2.83;;
71558;SDS011;59382;43.852;25.952;2024-02-15T01:26:26;6.25;;;2.78;;
71558;SDS011;59382;43.852;25.952;2024-02-15T01:28:52;3.63;;;2.90;;
71558;SDS011;59382;43.852;25.952;2024-02-15T01:31:18;5.22;;;3.47;;
71558;SDS011;59382;43.852;25.952;2024-02-15T01:33:43;4.05;;;2.47;;
71558;SDS011;59382;43.852;25.952;2024-02-15T01:36:14;3.85;;;2.78;;
71558;SDS011;59382;43.852;25.952;2024-02-15T01:38:40;6.57;;;2.47;;
71558;SDS011;59382;43.852;25.952;2024-02-15T01:41:07;3.83;;;2.35;;
71558;SDS011;59382;43.852;25.952;2024-02-15T01:43:33;3.63;;;2.70;;
71558;SDS011;59382;43.852;25.952;2024-02-15T01:45:59;5.97;;;2.92;;
71558;SDS011;59382;43.852;25.952;2024-02-15T01:48:28;2.97;;;2.67;;
71558;SDS011;59382;43.852;25.952;2024-02-15T01:50:55;7.22;;;3.22;;
71558;SDS011;59382;43.852;25.952;2024-02-15T01:53:21;3.90;;;2.85;;
71558;SDS011;59382;43.852;25.952;2024-02-15T01:55:47;5.70;;;3.28;;
71558;SDS011;59382;43.852;25.952;2024-02-15T01:58:12;6.72;;;3.20;;
71558;SDS011;59382;43.852;25.952;2024-02-15T02:00:38;4.47;;;3.38;;
71558;SDS011;59382;43.852;25.952;2024-02-15T02:03:04;3.95;;;2.90;;
71558;SDS011;59382;43.852;25.952;2024-02-15T02:05:30;5.07;;;3.03;;
71558;SDS011;59382;43.852;25.952;2024-02-15T02:07:56;5.30;;;3.08;;
71558;SDS011;59382;43.852;25.952;2024-02-15T02:10:29;4.90;;;3.20;;
71558;SDS011;59382;43.852;25.952;2024-02-15T02:12:58;5.82;;;3.47;;
71558;SDS011;59382;43.852;25.952;2024-02-15T02:15:26;3.47;;;2.75;;
71558;SDS011;59382;43.852;25.952;2024-02-15T02:17:51;4.95;;;3.42;;
71558;SDS011;59382;43.852;25.952;2024-02-15T02:20:17;4.07;;;3.10;;
71558;SDS011;59382;43.852;25.952;2024-02-15T02:22:44;3.65;;;2.70;;
71558;SDS011;59382;43.852;25.952;2024-02-15T02:25:11;5.22;;;3.17;;
71558;SDS011;59382;43.852;25.952;2024-02-15T02:27:38;3.80;;;2.58;;
71558;SDS011;59382;43.852;25.952;2024-02-15T02:30:13;5.53;;;2.92;;
71558;SDS011;59382;43.852;25.952;2024-02-15T02:32:43;6.45;;;2.85;;
71558;SDS011;59382;43.852;25.952;2024-02-15T02:35:09;3.97;;;2.95;;
71558;SDS011;59382;43.852;25.952;2024-02-15T02:37:40;4.75;;;2.72;;
71558;SDS011;59382;43.852;25.952;2024-02-15T02:40:06;3.17;;;2.42;;
71558;SDS011;59382;43.852;25.952;2024-02-15T02:42:36;9.80;;;2.97;;
71558;SDS011;59382;43.852;25.952;2024-02-15T02:45:13;8.52;;;3.55;;
71558;SDS011;59382;43.852;25.952;2024-02-15T02:47:39;3.83;;;3.03;;
71558;SDS011;59382;43.852;25.952;2024-02-15T02:50:05;5.32;;;2.60;;
71558;SDS011;59382;43.852;25.952;2024-02-15T02:52:31;4.95;;;2.97;;
71558;SDS011;59382;43.852;25.952;2024-02-15T02:54:56;4.07;;;3.17;;
71558;SDS011;59382;43.852;25.952;2024-02-15T02:57:23;4.95;;;2.90;;
71558;SDS011;59382;43.852;25.952;2024-02-15T02:59:48;7.93;;;3.60;;
71558;SDS011;59382;43.852;25.952;2024-02-15T03:02:14;3.67;;;2.70;;
71558;SDS011;59382;43.852;25.952;2024-02-15T03:04:39;3.83;;;3.13;;
71558;SDS011;59382;43.852;25.952;2024-02-15T03:07:05;4.78;;;2.80;;
71558;SDS011;59382;43.852;25.952;2024-02-15T03:09:30;4.13;;;2.85;;
71558;SDS011;59382;43.852;25.952;2024-02-15T03:11:56;3.53;;;2.55;;
71558;SDS011;59382;43.852;25.952;2024-02-15T03:14:22;7.30;;;3.45;;
71558;SDS011;59382;43.852;25.952;2024-02-15T03:16:48;3.88;;;2.70;;
71558;SDS011;59382;43.852;25.952;2024-02-15T03:19:13;5.38;;;3.38;;
71558;SDS011;59382;43.852;25.952;2024-02-15T03:21:39;7.57;;;3.65;;
71558;SDS011;59382;43.852;25.952;2024-02-15T03:24:06;7.35;;;3.47;;
71558;SDS011;59382;43.852;25.952;2024-02-15T03:26:32;8.63;;;4.80;;
71558;SDS011;59382;43.852;25.952;2024-02-15T03:29:02;8.15;;;3.42;;
71558;SDS011;59382;43.852;25.952;2024-02-15T03:31:28;6.30;;;3.58;;
71558;SDS011;59382;43.852;25.952;2024-02-15T03:33:56;4.82;;;3.33;;
71558;SDS011;59382;43.852;25.952;2024-02-15T03:36:24;7.30;;;4.32;;
71558;SDS011;59382;43.852;25.952;2024-02-15T03:38:49;5.50;;;3.58;;
71558;SDS011;59382;43.852;25.952;2024-02-15T03:41:19;3.85;;;2.72;;
71558;SDS011;59382;43.852;25.952;2024-02-15T03:43:45;10.50;;;5.13;;
71558;SDS011;59382;43.852;25.952;2024-02-15T03:46:11;7.10;;;4.28;;
71558;SDS011;59382;43.852;25.952;2024-02-15T03:48:38;5.32;;;3.67;;
71558;SDS011;59382;43.852;25.952;2024-02-15T03:51:04;10.55;;;5.00;;
71558;SDS011;59382;43.852;25.952;2024-02-15T03:53:31;6.63;;;4.18;;
71558;SDS011;59382;43.852;25.952;2024-02-15T03:55:58;8.15;;;4.95;;
71558;SDS011;59382;43.852;25.952;2024-02-15T03:58:25;8.18;;;4.00;;
71558;SDS011;59382;43.852;25.952;2024-02-15T04:00:51;10.10;;;4.03;;
71558;SDS011;59382;43.852;25.952;2024-02-15T04:03:16;6.05;;;4.03;;
71558;SDS011;59382;43.852;25.952;2024-02-15T04:05:42;6.63;;;4.22;;
71558;SDS011;59382;43.852;25.952;2024-02-15T04:08:07;8.32;;;4.00;;
71558;SDS011;59382;43.852;25.952;2024-02-15T04:10:33;7.53;;;4.05;;
71558;SDS011;59382;43.852;25.952;2024-02-15T04:12:59;5.82;;;4.38;;
71558;SDS011;59382;43.852;25.952;2024-02-15T04:15:24;7.78;;;4.30;;
71558;SDS011;59382;43.852;25.952;2024-02-15T04:17:50;7.30;;;4.32;;
71558;SDS011;59382;43.852;25.952;2024-02-15T04:20:21;6.68;;;3.70;;
71558;SDS011;59382;43.852;25.952;2024-02-15T04:22:47;7.95;;;4.53;;
71558;SDS011;59382;43.852;25.952;2024-02-15T04:25:15;7.38;;;4.45;;
71558;SDS011;59382;43.852;25.952;2024-02-15T04:27:48;8.20;;;4.47;;
71558;SDS011;59382;43.852;25.952;2024-02-15T04:30:14;5.45;;;3.80;;
71558;SDS011;59382;43.852;25.952;2024-02-15T04:32:40;5.75;;;4.20;;
71558;SDS011;59382;43.852;25.952;2024-02-15T04:35:06;6.10;;;4.38;;
71558;SDS011;59382;43.852;25.952;2024-02-15T04:37:32;6.88;;;4.13;;
71558;SDS011;59382;43.852;25.952;2024-02-15T04:39:59;8.82;;;5.35;;
71558;SDS011;59382;43.852;25.952;2024-02-15T04:42:35;7.50;;;5.17;;
71558;SDS011;59382;43.852;25.952;2024-02-15T04:45:04;9.25;;;4.95;;
71558;SDS011;59382;43.852;25.952;2024-02-15T04:47:33;5.13;;;4.10;;
71558;SDS011;59382;43.852;25.952;2024-02-15T04:49:59;10.63;;;5.05;;
71558;SDS011;59382;43.852;25.952;2024-02-15T04:52:25;8.02;;;4.78;;
71558;SDS011;59382;43.852;25.952;2024-02-15T04:54:51;7.70;;;4.97;;
71558;SDS011;59382;43.852;25.952;2024-02-15T04:57:19;7.10;;;4.55;;
71558;SDS011;59382;43.852;25.952;2024-02-15T04:59:44;6.93;;;4.63;;
71558;SDS011;59382;43.852;25.952;2024-02-15T05:02:12;9.57;;;4.50;;
71558;SDS011;59382;43.852;25.952;2024-02-15T05:04:38;6.97;;;4.57;;
71558;SDS011;59382;43.852;25.952;2024-02-15T05:07:07;8.32;;;4.07;;
71558;SDS011;59382;43.852;25.952;2024-02-15T05:09:33;6.50;;;4.50;;
71558;SDS011;59382;43.852;25.952;2024-02-15T05:11:59;7.43;;;5.05;;
71558;SDS011;59382;43.852;25.952;2024-02-15T05:14:27;11.77;;;4.78;;
71558;SDS011;59382;43.852;25.952;2024-02-15T05:16:53;8.88;;;5.20;;
71558;SDS011;59382;43.852;25.952;2024-02-15T05:19:19;15.70;;;7.78;;
71558;SDS011;59382;43.852;25.952;2024-02-15T05:21:44;14.77;;;7.47;;
71558;SDS011;59382;43.852;25.952;2024-02-15T05:24:14;12.23;;;6.97;;
71558;SDS011;59382;43.852;25.952;2024-02-15T05:26:41;12.85;;;5.13;;
71558;SDS011;59382;43.852;25.952;2024-02-15T05:29:09;22.55;;;8.02;;
71558;SDS011;59382;43.852;25.952;2024-02-15T05:31:36;14.35;;;7.40;;
71558;SDS011;59382;43.852;25.952;2024-02-15T05:34:04;11.63;;;4.57;;
71558;SDS011;59382;43.852;25.952;2024-02-15T05:36:32;5.38;;;2.83;;
71558;SDS011;59382;43.852;25.952;2024-02-15T05:38:59;11.13;;;3.40;;
71558;SDS011;59382;43.852;25.952;2024-02-15T05:41:25;8.38;;;4.43;;
71558;SDS011;59382;43.852;25.952;2024-02-15T05:43:50;7.65;;;4.03;;
71558;SDS011;59382;43.852;25.952;2024-02-15T05:46:19;9.07;;;4.97;;
71558;SDS011;59382;43.852;25.952;2024-02-15T05:48:48;8.07;;;4.90;;
71558;SDS011;59382;43.852;25.952;2024-02-15T05:51:14;10.07;;;5.18;;
71558;SDS011;59382;43.852;25.952;2024-02-15T05:53:40;8.82;;;5.00;;
71558;SDS011;59382;43.852;25.952;2024-02-15T05:56:07;12.10;;;5.28;;
71558;SDS011;59382;43.852;25.952;2024-02-15T05:58:34;25.80;;;6.32;;
71558;SDS011;59382;43.852;25.952;2024-02-15T06:01:01;8.13;;;4.55;;
71558;SDS011;59382;43.852;25.952;2024-02-15T06:03:33;6.97;;;4.40;;
71558;SDS011;59382;43.852;25.952;2024-02-15T06:06:03;9.27;;;4.65;;
71558;SDS011;59382;43.852;25.952;2024-02-15T06:08:35;9.40;;;5.50;;
71558;SDS011;59382;43.852;25.952;2024-02-15T06:11:02;20.55;;;5.53;;
71558;SDS011;59382;43.852;25.952;2024-02-15T06:13:29;16.60;;;7.50;;
71558;SDS011;59382;43.852;25.952;2024-02-15T06:15:54;10.75;;;5.75;;
71558;SDS011;59382;43.852;25.952;2024-02-15T06:18:20;13.00;;;5.90;;
71558;SDS011;59382;43.852;25.952;2024-02-15T06:20:57;15.13;;;7.20;;
71558;SDS011;59382;43.852;25.952;2024-02-15T06:23:24;8.35;;;5.47;;
71558;SDS011;59382;43.852;25.952;2024-02-15T06:25:52;12.98;;;6.80;;
71558;SDS011;59382;43.852;25.952;2024-02-15T06:28:18;15.40;;;7.93;;
71558;SDS011;59382;43.852;25.952;2024-02-15T06:33:52;12.20;;;5.78;;
71558;SDS011;59382;43.852;25.952;2024-02-15T06:36:49;10.00;;;5.82;;
71558;SDS011;59382;43.852;25.952;2024-02-15T06:39:34;12.52;;;6.45;;
71558;SDS011;59382;43.852;25.952;2024-02-15T06:42:06;10.52;;;5.68;;
71558;SDS011;59382;43.852;25.952;2024-02-15T06:44:32;8.85;;;5.25;;
71558;SDS011;59382;43.852;25.952;2024-02-15T06:46:58;7.22;;;4.47;;
71558;SDS011;59382;43.852;25.952;2024-02-15T06:49:24;9.20;;;5.10;;
71558;SDS011;59382;43.852;25.952;2024-02-15T06:51:50;5.97;;;4.15;;
71558;SDS011;59382;43.852;25.952;2024-02-15T06:54:16;8.35;;;4.70;;
71558;SDS011;59382;43.852;25.952;2024-02-15T06:56:45;6.05;;;4.80;;
71558;SDS011;59382;43.852;25.952;2024-02-15T06:59:11;8.65;;;4.80;;
71558;SDS011;59382;43.852;25.952;2024-02-15T07:01:41;10.77;;;5.60;;
71558;SDS011;59382;43.852;25.952;2024-02-15T07:04:08;7.13;;;5.32;;
71558;SDS011;59382;43.852;25.952;2024-02-15T07:06:36;9.32;;;5.45;;
71558;SDS011;59382;43.852;25.952;2024-02-15T07:09:03;11.68;;;6.05;;
71558;SDS011;59382;43.852;25.952;2024-02-15T07:11:29;11.45;;;7.78;;
71558;SDS011;59382;43.852;25.952;2024-02-15T07:13:57;14.07;;;8.57;;
71558;SDS011;59382;43.852;25.952;2024-02-15T07:16:23;14.85;;;8.13;;
71558;SDS011;59382;43.852;25.952;2024-02-15T07:18:49;14.38;;;7.60;;
71558;SDS011;59382;43.852;25.952;2024-02-15T07:21:15;12.35;;;8.20;;
71558;SDS011;59382;43.852;25.952;2024-02-15T07:23:42;10.15;;;5.97;;
71558;SDS011;59382;43.852;25.952;2024-02-15T07:26:08;8.73;;;5.47;;
71558;SDS011;59382;43.852;25.952;2024-02-15T07:28:33;7.60;;;4.95;;
71558;SDS011;59382;43.852;25.952;2024-02-15T07:31:00;9.25;;;4.80;;
71558;SDS011;59382;43.852;25.952;2024-02-15T07:33:28;9.43;;;5.15;;
71558;SDS011;59382;43.852;25.952;2024-02-15T07:35:54;7.88;;;5.15;;
71558;SDS011;59382;43.852;25.952;2024-02-15T07:38:21;14.43;;;5.45;;
71558;SDS011;59382;43.852;25.952;2024-02-15T07:40:50;8.02;;;5.50;;
71558;SDS011;59382;43.852;25.952;2024-02-15T07:43:16;16.88;;;7.15;;
71558;SDS011;59382;43.852;25.952;2024-02-15T07:45:42;10.23;;;5.80;;
71558;SDS011;59382;43.852;25.952;2024-02-15T07:48:07;8.65;;;5.22;;
71558;SDS011;59382;43.852;25.952;2024-02-15T07:50:34;7.93;;;4.55;;
71558;SDS011;59382;43.852;25.952;2024-02-15T07:53:02;12.30;;;6.43;;
71558;SDS011;59382;43.852;25.952;2024-02-15T07:55:31;7.50;;;4.88;;
71558;SDS011;59382;43.852;25.952;2024-02-15T07:57:57;6.13;;;4.65;;
71558;SDS011;59382;43.852;25.952;2024-02-15T08:00:24;7.43;;;4.00;;
71558;SDS011;59382;43.852;25.952;2024-02-15T08:02:52;11.65;;;4.25;;
71558;SDS011;59382;43.852;25.952;2024-02-15T08:05:18;7.45;;;3.97;;
71558;SDS011;59382;43.852;25.952;2024-02-15T08:07:44;12.43;;;5.00;;
71558;SDS011;59382;43.852;25.952;2024-02-15T08:10:10;13.00;;;4.43;;
71558;SDS011;59382;43.852;25.952;2024-02-15T08:15:09;12.75;;;4.97;;
71558;SDS011;59382;43.852;25.952;2024-02-15T08:17:43;11.40;;;4.47;;
71558;SDS011;59382;43.852;25.952;2024-02-15T08:20:13;5.03;;;3.08;;
71558;SDS011;59382;43.852;25.952;2024-02-15T08:22:40;13.90;;;2.90;;
71558;SDS011;59382;43.852;25.952;2024-02-15T08:25:09;5.07;;;2.85;;
71558;SDS011;59382;43.852;25.952;2024-02-15T08:27:47;3.97;;;2.88;;
71558;SDS011;59382;43.852;25.952;2024-02-15T08:30:15;5.78;;;2.60;;
71558;SDS011;59382;43.852;25.952;2024-02-15T08:32:41;7.22;;;3.03;;
71558;SDS011;59382;43.852;25.952;2024-02-15T08:35:12;16.65;;;3.58;;
71558;SDS011;59382;43.852;25.952;2024-02-15T08:37:38;5.90;;;2.67;;
71558;SDS011;59382;43.852;25.952;2024-02-15T08:40:05;5.22;;;2.35;;
71558;SDS011;59382;43.852;25.952;2024-02-15T08:42:40;5.38;;;2.78;;
71558;SDS011;59382;43.852;25.952;2024-02-15T08:45:07;5.07;;;2.60;;
71558;SDS011;59382;43.852;25.952;2024-02-15T08:47:35;6.45;;;2.70;;
71558;SDS011;59382;43.852;25.952;2024-02-15T08:50:07;3.95;;;2.85;;
71558;SDS011;59382;43.852;25.952;2024-02-15T08:52:36;5.07;;;2.60;;
71558;SDS011;59382;43.852;25.952;2024-02-15T08:55:09;7.20;;;2.90;;
71558;SDS011;59382;43.852;25.952;2024-02-15T08:57:35;4.70;;;2.58;;
71558;SDS011;59382;43.852;25.952;2024-02-15T09:00:03;7.63;;;2.60;;
71558;SDS011;59382;43.852;25.952;2024-02-15T09:02:34;11.85;;;2.75;;
71558;SDS011;59382;43.852;25.952;2024-02-15T09:05:00;5.45;;;2.63;;
71558;SDS011;59382;43.852;25.952;2024-02-15T09:07:25;7.57;;;2.63;;
71558;SDS011;59382;43.852;25.952;2024-02-15T09:09:51;3.70;;;2.60;;
71558;SDS011;59382;43.852;25.952;2024-02-15T09:12:16;7.03;;;2.92;;
71558;SDS011;59382;43.852;25.952;2024-02-15T09:14:42;5.07;;;2.58;;
71558;SDS011;59382;43.852;25.952;2024-02-15T09:17:07;21.35;;;3.65;;
71558;SDS011;59382;43.852;25.952;2024-02-15T09:19:33;8.27;;;2.97;;
71558;SDS011;59382;43.852;25.952;2024-02-15T09:22:00;4.38;;;2.92;;
71558;SDS011;59382;43.852;25.952;2024-02-15T09:24:26;7.90;;;3.90;;
71558;SDS011;59382;43.852;25.952;2024-02-15T09:26:52;4.95;;;3.65;;
71558;SDS011;59382;43.852;25.952;2024-02-15T09:29:18;7.65;;;3.28;;
71558;SDS011;59382;43.852;25.952;2024-02-15T09:31:46;4.53;;;3.38;;
71558;SDS011;59382;43.852;25.952;2024-02-15T09:34:15;5.03;;;3.53;;
71558;SDS011;59382;43.852;25.952;2024-02-15T09:36:40;9.35;;;3.17;;
71558;SDS011;59382;43.852;25.952;2024-02-15T09:39:06;4.30;;;2.70;;
71558;SDS011;59382;43.852;25.952;2024-02-15T09:41:31;8.02;;;3.03;;
71558;SDS011;59382;43.852;25.952;2024-02-15T09:43:59;5.30;;;3.30;;
71558;SDS011;59382;43.852;25.952;2024-02-15T09:46:26;5.55;;;3.20;;
71558;SDS011;59382;43.852;25.952;2024-02-15T09:48:52;8.30;;;2.95;;
71558;SDS011;59382;43.852;25.952;2024-02-15T09:51:25;3.58;;;2.38;;
71558;SDS011;59382;43.852;25.952;2024-02-15T09:53:52;3.67;;;2.50;;
71558;SDS011;59382;43.852;25.952;2024-02-15T09:56:18;7.55;;;3.35;;
71558;SDS011;59382;43.852;25.952;2024-02-15T09:58:46;10.00;;;2.90;;
71558;SDS011;59382;43.852;25.952;2024-02-15T10:01:12;6.80;;;3.35;;
71558;SDS011;59382;43.852;25.952;2024-02-15T10:03:39;5.65;;;3.08;;
71558;SDS011;59382;43.852;25.952;2024-02-15T10:06:06;4.78;;;2.85;;
71558;SDS011;59382;43.852;25.952;2024-02-15T10:08:32;6.78;;;2.88;;
71558;SDS011;59382;43.852;25.952;2024-02-15T10:11:10;11.05;;;3.35;;
71558;SDS011;59382;43.852;25.952;2024-02-15T10:13:36;5.55;;;3.15;;
71558;SDS011;59382;43.852;25.952;2024-02-15T10:18:50;5.28;;;3.50;;
71558;SDS011;59382;43.852;25.952;2024-02-15T10:21:25;8.00;;;3.33;;
71558;SDS011;59382;43.852;25.952;2024-02-15T10:24:02;8.75;;;3.58;;
71558;SDS011;59382;43.852;25.952;2024-02-15T10:26:30;8.07;;;4.45;;
71558;SDS011;59382;43.852;25.952;2024-02-15T10:29:07;14.32;;;4.38;;
71558;SDS011;59382;43.852;25.952;2024-02-15T10:31:37;9.40;;;3.38;;
71558;SDS011;59382;43.852;25.952;2024-02-15T10:34:06;6.07;;;3.33;;
71558;SDS011;59382;43.852;25.952;2024-02-15T10:36:32;4.15;;;3.15;;
71558;SDS011;59382;43.852;25.952;2024-02-15T10:39:11;11.48;;;4.97;;
71558;SDS011;59382;43.852;25.952;2024-02-15T10:41:52;6.22;;;3.22;;
71558;SDS011;59382;43.852;25.952;2024-02-15T10:44:22;4.60;;;3.05;;
71558;SDS011;59382;43.852;25.952;2024-02-15T10:46:49;3.67;;;3.00;;
71558;SDS011;59382;43.852;25.952;2024-02-15T10:49:25;11.15;;;3.58;;
71558;SDS011;59382;43.852;25.952;2024-02-15T10:51:55;8.32;;;3.70;;
71558;SDS011;59382;43.852;25.952;2024-02-15T10:54:26;7.00;;;3.42;;
71558;SDS011;59382;43.852;25.952;2024-02-15T10:56:54;19.83;;;3.88;;
71558;SDS011;59382;43.852;25.952;2024-02-15T10:59:29;10.23;;;3.30;;
71558;SDS011;59382;43.852;25.952;2024-02-15T11:02:00;13.93;;;3.25;;
71558;SDS011;59382;43.852;25.952;2024-02-15T11:04:30;3.78;;;3.15;;
71558;SDS011;59382;43.852;25.952;2024-02-15T11:07:00;8.07;;;4.13;;
71558;SDS011;59382;43.852;25.952;2024-02-15T11:09:28;5.88;;;3.38;;
71558;SDS011;59382;43.852;25.952;2024-02-15T11:11:55;8.35;;;3.45;;
71558;SDS011;59382;43.852;25.952;2024-02-15T11:14:30;4.00;;;3.45;;
71558;SDS011;59382;43.852;25.952;2024-02-15T11:16:59;11.18;;;3.38;;
71558;SDS011;59382;43.852;25.952;2024-02-15T11:22:00;11.52;;;4.10;;
71558;SDS011;59382;43.852;25.952;2024-02-15T11:24:30;5.10;;;2.85;;
71558;SDS011;59382;43.852;25.952;2024-02-15T11:27:05;20.00;;;3.40;;
71558;SDS011;59382;43.852;25.952;2024-02-15T11:35:05;9.02;;;4.30;;
71558;SDS011;59382;43.852;25.952;2024-02-15T11:42:44;12.65;;;5.35;;
71558;SDS011;59382;43.852;25.952;2024-02-15T11:45:11;9.63;;;3.58;;
71558;SDS011;59382;43.852;25.952;2024-02-15T11:47:38;3.30;;;2.65;;
71558;SDS011;59382;43.852;25.952;2024-02-15T11:50:07;5.10;;;3.05;;
71558;SDS011;59382;43.852;25.952;2024-02-15T11:53:01;11.18;;;3.88;;
71558;SDS011;59382;43.852;25.952;2024-02-15T11:55:35;6.18;;;2.80;;
71558;SDS011;59382;43.852;25.952;2024-02-15T11:58:02;4.00;;;2.78;;
71558;SDS011;59382;43.852;25.952;2024-02-15T12:00:34;8.30;;;3.10;;
71558;SDS011;59382;43.852;25.952;2024-02-15T12:03:20;8.40;;;3.40;;
71558;SDS011;59382;43.852;25.952;2024-02-15T12:06:16;14.73;;;3.42;;
71558;SDS011;59382;43.852;25.952;2024-02-15T12:09:01;2.97;;;2.28;;
71558;SDS011;59382;43.852;25.952;2024-02-15T12:11:46;4.05;;;2.88;;
71558;SDS011;59382;43.852;25.952;2024-02-15T12:14:30;4.22;;;2.75;;
71558;SDS011;59382;43.852;25.952;2024-02-15T12:17:14;8.00;;;5.07;;
71558;SDS011;59382;43.852;25.952;2024-02-15T12:20:02;10.25;;;3.95;;
71558;SDS011;59382;43.852;25.952;2024-02-15T12:22:40;19.05;;;4.55;;
71558;SDS011;59382;43.852;25.952;2024-02-15T12:25:15;4.80;;;2.95;;
71558;SDS011;59382;43.852;25.952;2024-02-15T12:27:42;5.25;;;3.30;;
71558;SDS011;59382;43.852;25.952;2024-02-15T12:30:15;13.45;;;5.80;;
71558;SDS011;59382;43.852;25.952;2024-02-15T12:32:46;13.65;;;4.35;;
71558;SDS011;59382;43.852;25.952;2024-02-15T12:37:45;5.63;;;3.05;;
71558;SDS011;59382;43.852;25.952;2024-02-15T12:40:16;7.57;;;3.20;;
71558;SDS011;59382;43.852;25.952;2024-02-15T12:42:46;2.75;;;2.50;;
71558;SDS011;59382;43.852;25.952;2024-02-15T12:45:18;15.30;;;3.30;;
71558;SDS011;59382;43.852;25.952;2024-02-15T12:47:49;5.82;;;3.55;;
71558;SDS011;59382;43.852;25.952;2024-02-15T12:50:16;20.45;;;3.22;;
71558;SDS011;59382;43.852;25.952;2024-02-15T12:52:42;5.00;;;3.40;;
71558;SDS011;59382;43.852;25.952;2024-02-15T12:55:17;13.48;;;3.83;;
71558;SDS011;59382;43.852;25.952;2024-02-15T12:57:48;14.82;;;3.75;;
71558;SDS011;59382;43.852;25.952;2024-02-15T13:00:26;11.13;;;3.08;;
71558;SDS011;59382;43.852;25.952;2024-02-15T13:02:54;9.95;;;3.53;;
71558;SDS011;59382;43.852;25.952;2024-02-15T13:05:21;8.45;;;3.35;;
71558;SDS011;59382;43.852;25.952;2024-02-15T13:07:48;13.68;;;3.10;;
71558;SDS011;59382;43.852;25.952;2024-02-15T13:10:14;13.38;;;3.55;;
71558;SDS011;59382;43.852;25.952;2024-02-15T13:12:44;9.65;;;3.13;;
71558;SDS011;59382;43.852;25.952;2024-02-15T13:15:11;10.15;;;2.95;;
71558;SDS011;59382;43.852;25.952;2024-02-15T13:17:45;6.07;;;3.05;;
71558;SDS011;59382;43.852;25.952;2024-02-15T13:20:22;14.15;;;3.33;;
71558;SDS011;59382;43.852;25.952;2024-02-15T13:23:00;10.65;;;3.53;;
71558;SDS011;59382;43.852;25.952;2024-02-15T13:25:48;10.07;;;3.03;;
71558;SDS011;59382;43.852;25.952;2024-02-15T13:28:14;10.57;;;3.33;;
71558;SDS011;59382;43.852;25.952;2024-02-15T13:30:40;5.18;;;2.70;;
71558;SDS011;59382;43.852;25.952;2024-02-15T13:33:08;6.80;;;3.05;;
71558;SDS011;59382;43.852;25.952;2024-02-15T13:35:34;3.80;;;2.85;;
71558;SDS011;59382;43.852;25.952;2024-02-15T13:38:01;3.10;;;2.58;;
71558;SDS011;59382;43.852;25.952;2024-02-15T13:40:28;4.53;;;2.80;;
71558;SDS011;59382;43.852;25.952;2024-02-15T13:42:59;5.00;;;2.42;;
71558;SDS011;59382;43.852;25.952;2024-02-15T13:45:30;12.00;;;2.40;;
71558;SDS011;59382;43.852;25.952;2024-02-15T13:48:00;20.65;;;3.35;;
71558;SDS011;59382;43.852;25.952;2024-02-15T13:50:27;9.35;;;3.05;;
71558;SDS011;59382;43.852;25.952;2024-02-15T13:52:54;9.13;;;2.38;;
71558;SDS011;59382;43.852;25.952;2024-02-15T13:55:20;10.45;;;2.58;;
71558;SDS011;59382;43.852;25.952;2024-02-15T13:57:46;6.93;;;2.60;;
71558;SDS011;59382;43.852;25.952;2024-02-15T14:00:13;9.55;;;2.80;;
71558;SDS011;59382;43.852;25.952;2024-02-15T14:05:15;13.50;;;3.03;;
71558;SDS011;59382;43.852;25.952;2024-02-15T14:07:48;9.27;;;3.10;;
71558;SDS011;59382;43.852;25.952;2024-02-15T14:10:34;9.32;;;2.80;;
71558;SDS011;59382;43.852;25.952;2024-02-15T14:13:01;5.75;;;2.75;;
71558;SDS011;59382;43.852;25.952;2024-02-15T14:15:28;21.20;;;4.72;;
71558;SDS011;59382;43.852;25.952;2024-02-15T14:17:55;26.95;;;4.30;;
71558;SDS011;59382;43.852;25.952;2024-02-15T14:20:26;7.40;;;3.70;;
71558;SDS011;59382;43.852;25.952;2024-02-15T14:22:51;14.32;;;3.38;;
71558;SDS011;59382;43.852;25.952;2024-02-15T14:25:26;10.88;;;3.35;;
71558;SDS011;59382;43.852;25.952;2024-02-15T14:27:55;9.73;;;3.67;;
71558;SDS011;59382;43.852;25.952;2024-02-15T14:30:22;2.67;;;1.75;;
71558;SDS011;59382;43.852;25.952;2024-02-15T14:33:06;3.03;;;2.42;;
71558;SDS011;59382;43.852;25.952;2024-02-15T14:35:39;6.32;;;2.78;;
71558;SDS011;59382;43.852;25.952;2024-02-15T14:38:11;10.05;;;2.55;;
71558;SDS011;59382;43.852;25.952;2024-02-15T14:40:41;13.80;;;2.65;;
71558;SDS011;59382;43.852;25.952;2024-02-15T14:43:19;5.03;;;2.28;;
71558;SDS011;59382;43.852;25.952;2024-02-15T14:45:46;6.72;;;2.40;;
71558;SDS011;59382;43.852;25.952;2024-02-15T14:48:13;15.63;;;2.80;;
71558;SDS011;59382;43.852;25.952;2024-02-15T14:50:42;4.40;;;2.00;;
71558;SDS011;59382;43.852;25.952;2024-02-15T14:53:09;4.50;;;1.88;;
71558;SDS011;59382;43.852;25.952;2024-02-15T14:55:35;2.35;;;1.77;;
71558;SDS011;59382;43.852;25.952;2024-02-15T14:58:04;7.45;;;2.25;;
71558;SDS011;59382;43.852;25.952;2024-02-15T15:00:35;7.18;;;2.47;;
71558;SDS011;59382;43.852;25.952;2024-02-15T15:03:02;10.55;;;2.67;;
71558;SDS011;59382;43.852;25.952;2024-02-15T15:05:28;12.45;;;2.45;;